sensor_id;sensor_type;location;lat;lon;timestamp;P1;durP1;ratioP1;P2;durP2;ratioP2
73872;SDS011;62206;47.568;9.364;2023-12-22T00:00:19;4.38;;;3.28;;
73872;SDS011;62206;47.568;9.364;2023-12-22T00:02:46;4.68;;;2.70;;
73872;SDS011;62206;47.568;9.364;2023-12-22T00:05:14;4.07;;;3.20;;
73872;SDS011;62206;47.568;9.364;2023-12-22T00:07:41;4.45;;;2.50;;
73872;SDS011;62206;47.568;9.364;2023-12-22T00:10:09;4.75;;;3.28;;
73872;SDS011;62206;47.568;9.364;2023-12-22T00:12:36;4.07;;;3.28;;
73872;SDS011;62206;47.568;9.364;2023-12-22T00:15:04;5.78;;;3.90;;
73872;SDS011;62206;47.568;9.364;2023-12-22T00:17:32;4.72;;;3.65;;
73872;SDS011;62206;47.568;9.364;2023-12-22T00:19:58;4.57;;;3.17;;
73872;SDS011;62206;47.568;9.364;2023-12-22T00:22:29;5.15;;;3.47;;
73872;SDS011;62206;47.568;9.364;2023-12-22T00:24:57;4.70;;;3.40;;
73872;SDS011;62206;47.568;9.364;2023-12-22T00:27:24;4.47;;;3.35;;
73872;SDS011;62206;47.568;9.364;2023-12-22T00:29:50;4.63;;;3.63;;
73872;SDS011;62206;47.568;9.364;2023-12-22T00:32:18;4.75;;;3.75;;
73872;SDS011;62206;47.568;9.364;2023-12-22T00:34:45;4.88;;;4.20;;
73872;SDS011;62206;47.568;9.364;2023-12-22T00:37:12;5.30;;;3.63;;
73872;SDS011;62206;47.568;9.364;2023-12-22T00:39:40;6.38;;;4.00;;
73872;SDS011;62206;47.568;9.364;2023-12-22T00:42:07;4.40;;;3.53;;
73872;SDS011;62206;47.568;9.364;2023-12-22T00:44:34;7.72;;;4.25;;
73872;SDS011;62206;47.568;9.364;2023-12-22T00:47:02;6.13;;;4.25;;
73872;SDS011;62206;47.568;9.364;2023-12-22T00:49:30;6.95;;;3.30;;
73872;SDS011;62206;47.568;9.364;2023-12-22T00:51:57;6.32;;;3.65;;
73872;SDS011;62206;47.568;9.364;2023-12-22T00:54:24;5.82;;;3.75;;
73872;SDS011;62206;47.568;9.364;2023-12-22T00:56:52;4.47;;;2.80;;
73872;SDS011;62206;47.568;9.364;2023-12-22T00:59:19;7.95;;;3.50;;
73872;SDS011;62206;47.568;9.364;2023-12-22T01:01:47;5.95;;;3.35;;
73872;SDS011;62206;47.568;9.364;2023-12-22T01:04:14;4.88;;;4.10;;
73872;SDS011;62206;47.568;9.364;2023-12-22T01:06:40;5.70;;;3.63;;
73872;SDS011;62206;47.568;9.364;2023-12-22T01:09:08;7.07;;;4.22;;
73872;SDS011;62206;47.568;9.364;2023-12-22T01:11:35;6.13;;;4.03;;
73872;SDS011;62206;47.568;9.364;2023-12-22T01:14:03;5.22;;;3.40;;
73872;SDS011;62206;47.568;9.364;2023-12-22T01:16:32;4.80;;;4.30;;
73872;SDS011;62206;47.568;9.364;2023-12-22T01:18:59;5.75;;;3.90;;
73872;SDS011;62206;47.568;9.364;2023-12-22T01:21:26;5.25;;;3.10;;
73872;SDS011;62206;47.568;9.364;2023-12-22T01:23:54;4.85;;;4.35;;
73872;SDS011;62206;47.568;9.364;2023-12-22T01:26:21;4.57;;;4.13;;
73872;SDS011;62206;47.568;9.364;2023-12-22T01:28:48;5.60;;;3.97;;
73872;SDS011;62206;47.568;9.364;2023-12-22T01:31:17;4.97;;;4.07;;
73872;SDS011;62206;47.568;9.364;2023-12-22T01:33:44;4.72;;;3.78;;
73872;SDS011;62206;47.568;9.364;2023-12-22T01:36:11;4.85;;;4.05;;
73872;SDS011;62206;47.568;9.364;2023-12-22T01:38:39;6.10;;;4.57;;
73872;SDS011;62206;47.568;9.364;2023-12-22T01:41:06;5.00;;;4.18;;
73872;SDS011;62206;47.568;9.364;2023-12-22T01:43:33;5.32;;;3.92;;
73872;SDS011;62206;47.568;9.364;2023-12-22T01:46:01;6.93;;;4.28;;
73872;SDS011;62206;47.568;9.364;2023-12-22T01:48:30;5.57;;;4.20;;
73872;SDS011;62206;47.568;9.364;2023-12-22T01:50:57;5.93;;;4.57;;
73872;SDS011;62206;47.568;9.364;2023-12-22T01:53:25;6.80;;;4.05;;
73872;SDS011;62206;47.568;9.364;2023-12-22T01:55:53;4.78;;;3.90;;
73872;SDS011;62206;47.568;9.364;2023-12-22T01:58:21;4.88;;;4.43;;
73872;SDS011;62206;47.568;9.364;2023-12-22T02:00:49;5.28;;;4.10;;
73872;SDS011;62206;47.568;9.364;2023-12-22T02:03:16;5.68;;;4.30;;
73872;SDS011;62206;47.568;9.364;2023-12-22T02:05:44;5.30;;;3.65;;
73872;SDS011;62206;47.568;9.364;2023-12-22T02:08:15;4.90;;;3.80;;
73872;SDS011;62206;47.568;9.364;2023-12-22T02:10:44;5.85;;;3.60;;
73872;SDS011;62206;47.568;9.364;2023-12-22T02:13:11;4.40;;;4.00;;
73872;SDS011;62206;47.568;9.364;2023-12-22T02:15:38;4.15;;;3.40;;
73872;SDS011;62206;47.568;9.364;2023-12-22T02:18:06;4.90;;;4.30;;
73872;SDS011;62206;47.568;9.364;2023-12-22T02:20:34;5.13;;;3.55;;
73872;SDS011;62206;47.568;9.364;2023-12-22T02:23:03;4.57;;;4.18;;
73872;SDS011;62206;47.568;9.364;2023-12-22T02:25:30;4.93;;;3.72;;
73872;SDS011;62206;47.568;9.364;2023-12-22T02:27:57;5.20;;;3.30;;
73872;SDS011;62206;47.568;9.364;2023-12-22T02:30:28;5.13;;;3.88;;
73872;SDS011;62206;47.568;9.364;2023-12-22T02:32:58;5.50;;;3.97;;
73872;SDS011;62206;47.568;9.364;2023-12-22T02:35:27;7.32;;;3.55;;
73872;SDS011;62206;47.568;9.364;2023-12-22T02:37:56;5.35;;;4.20;;
73872;SDS011;62206;47.568;9.364;2023-12-22T02:40:25;5.72;;;4.40;;
73872;SDS011;62206;47.568;9.364;2023-12-22T02:42:53;4.80;;;4.30;;
73872;SDS011;62206;47.568;9.364;2023-12-22T02:45:20;5.13;;;3.58;;
73872;SDS011;62206;47.568;9.364;2023-12-22T02:47:49;7.63;;;3.78;;
73872;SDS011;62206;47.568;9.364;2023-12-22T02:50:16;5.53;;;3.95;;
73872;SDS011;62206;47.568;9.364;2023-12-22T02:52:43;5.53;;;4.22;;
73872;SDS011;62206;47.568;9.364;2023-12-22T02:55:10;5.70;;;4.20;;
73872;SDS011;62206;47.568;9.364;2023-12-22T02:57:39;6.25;;;3.83;;
73872;SDS011;62206;47.568;9.364;2023-12-22T03:00:06;4.95;;;4.10;;
73872;SDS011;62206;47.568;9.364;2023-12-22T03:02:34;4.95;;;3.78;;
73872;SDS011;62206;47.568;9.364;2023-12-22T03:05:01;8.82;;;4.93;;
73872;SDS011;62206;47.568;9.364;2023-12-22T03:07:28;9.75;;;4.78;;
73872;SDS011;62206;47.568;9.364;2023-12-22T03:09:55;5.78;;;4.40;;
73872;SDS011;62206;47.568;9.364;2023-12-22T03:12:22;7.80;;;4.53;;
73872;SDS011;62206;47.568;9.364;2023-12-22T03:14:51;5.38;;;4.50;;
73872;SDS011;62206;47.568;9.364;2023-12-22T03:17:18;6.97;;;3.90;;
73872;SDS011;62206;47.568;9.364;2023-12-22T03:19:45;7.55;;;4.30;;
73872;SDS011;62206;47.568;9.364;2023-12-22T03:22:12;8.95;;;4.03;;
73872;SDS011;62206;47.568;9.364;2023-12-22T03:24:39;6.90;;;3.85;;
73872;SDS011;62206;47.568;9.364;2023-12-22T03:27:06;5.65;;;3.83;;
73872;SDS011;62206;47.568;9.364;2023-12-22T03:29:33;6.18;;;4.38;;
73872;SDS011;62206;47.568;9.364;2023-12-22T03:32:02;7.18;;;4.65;;
73872;SDS011;62206;47.568;9.364;2023-12-22T03:34:30;5.25;;;4.43;;
73872;SDS011;62206;47.568;9.364;2023-12-22T03:36:56;9.77;;;4.70;;
73872;SDS011;62206;47.568;9.364;2023-12-22T03:39:23;8.65;;;3.97;;
73872;SDS011;62206;47.568;9.364;2023-12-22T03:41:51;5.95;;;4.15;;
73872;SDS011;62206;47.568;9.364;2023-12-22T03:44:18;5.85;;;3.30;;
73872;SDS011;62206;47.568;9.364;2023-12-22T03:46:45;5.93;;;4.53;;
73872;SDS011;62206;47.568;9.364;2023-12-22T03:49:14;5.07;;;3.63;;
73872;SDS011;62206;47.568;9.364;2023-12-22T03:51:41;4.97;;;4.10;;
73872;SDS011;62206;47.568;9.364;2023-12-22T03:54:08;6.60;;;3.95;;
73872;SDS011;62206;47.568;9.364;2023-12-22T03:56:36;6.15;;;3.47;;
73872;SDS011;62206;47.568;9.364;2023-12-22T03:59:03;6.45;;;3.88;;
73872;SDS011;62206;47.568;9.364;2023-12-22T04:01:30;5.05;;;4.10;;
73872;SDS011;62206;47.568;9.364;2023-12-22T04:03:57;5.97;;;4.57;;
73872;SDS011;62206;47.568;9.364;2023-12-22T04:06:25;5.07;;;3.60;;
73872;SDS011;62206;47.568;9.364;2023-12-22T04:08:53;4.43;;;3.90;;
73872;SDS011;62206;47.568;9.364;2023-12-22T04:11:20;4.65;;;3.70;;
73872;SDS011;62206;47.568;9.364;2023-12-22T04:13:47;4.60;;;3.60;;
73872;SDS011;62206;47.568;9.364;2023-12-22T04:16:14;4.60;;;4.05;;
73872;SDS011;62206;47.568;9.364;2023-12-22T04:18:41;5.30;;;3.50;;
73872;SDS011;62206;47.568;9.364;2023-12-22T04:21:08;5.00;;;4.28;;
73872;SDS011;62206;47.568;9.364;2023-12-22T04:23:37;5.57;;;4.45;;
73872;SDS011;62206;47.568;9.364;2023-12-22T04:26:04;5.75;;;4.47;;
73872;SDS011;62206;47.568;9.364;2023-12-22T04:28:31;5.78;;;3.13;;
73872;SDS011;62206;47.568;9.364;2023-12-22T04:30:58;5.43;;;4.18;;
73872;SDS011;62206;47.568;9.364;2023-12-22T04:33:26;5.30;;;3.72;;
73872;SDS011;62206;47.568;9.364;2023-12-22T04:35:53;5.93;;;3.75;;
73872;SDS011;62206;47.568;9.364;2023-12-22T04:38:19;7.20;;;4.55;;
73872;SDS011;62206;47.568;9.364;2023-12-22T04:40:48;6.47;;;4.40;;
73872;SDS011;62206;47.568;9.364;2023-12-22T04:43:15;8.38;;;4.63;;
73872;SDS011;62206;47.568;9.364;2023-12-22T04:45:42;7.85;;;4.65;;
73872;SDS011;62206;47.568;9.364;2023-12-22T04:48:10;7.53;;;4.68;;
73872;SDS011;62206;47.568;9.364;2023-12-22T04:50:36;6.03;;;4.57;;
73872;SDS011;62206;47.568;9.364;2023-12-22T04:53:03;6.38;;;4.57;;
73872;SDS011;62206;47.568;9.364;2023-12-22T04:55:31;5.13;;;4.63;;
73872;SDS011;62206;47.568;9.364;2023-12-22T04:57:59;5.25;;;4.45;;
73872;SDS011;62206;47.568;9.364;2023-12-22T05:00:26;6.45;;;3.95;;
73872;SDS011;62206;47.568;9.364;2023-12-22T05:02:54;8.13;;;4.57;;
73872;SDS011;62206;47.568;9.364;2023-12-22T05:05:21;5.40;;;4.40;;
73872;SDS011;62206;47.568;9.364;2023-12-22T05:07:48;6.53;;;4.13;;
73872;SDS011;62206;47.568;9.364;2023-12-22T05:10:16;4.97;;;4.13;;
73872;SDS011;62206;47.568;9.364;2023-12-22T05:12:43;6.55;;;4.70;;
73872;SDS011;62206;47.568;9.364;2023-12-22T05:15:11;8.05;;;5.05;;
73872;SDS011;62206;47.568;9.364;2023-12-22T05:17:39;8.13;;;4.80;;
73872;SDS011;62206;47.568;9.364;2023-12-22T05:20:06;7.95;;;5.00;;
73872;SDS011;62206;47.568;9.364;2023-12-22T05:22:36;6.47;;;4.65;;
73872;SDS011;62206;47.568;9.364;2023-12-22T05:25:04;9.40;;;4.50;;
73872;SDS011;62206;47.568;9.364;2023-12-22T05:27:32;7.00;;;4.88;;
73872;SDS011;62206;47.568;9.364;2023-12-22T05:29:59;6.90;;;3.63;;
73872;SDS011;62206;47.568;9.364;2023-12-22T05:32:30;7.93;;;4.68;;
73872;SDS011;62206;47.568;9.364;2023-12-22T05:34:57;7.35;;;4.50;;
73872;SDS011;62206;47.568;9.364;2023-12-22T05:37:24;7.28;;;4.63;;
73872;SDS011;62206;47.568;9.364;2023-12-22T05:39:51;7.10;;;5.20;;
73872;SDS011;62206;47.568;9.364;2023-12-22T05:42:18;6.40;;;4.63;;
73872;SDS011;62206;47.568;9.364;2023-12-22T05:44:45;6.18;;;4.05;;
73872;SDS011;62206;47.568;9.364;2023-12-22T05:47:15;6.18;;;4.85;;
73872;SDS011;62206;47.568;9.364;2023-12-22T05:49:43;7.75;;;4.60;;
73872;SDS011;62206;47.568;9.364;2023-12-22T05:52:11;8.30;;;4.88;;
73872;SDS011;62206;47.568;9.364;2023-12-22T05:54:39;8.55;;;4.32;;
73872;SDS011;62206;47.568;9.364;2023-12-22T05:57:06;10.30;;;5.18;;
73872;SDS011;62206;47.568;9.364;2023-12-22T05:59:33;8.07;;;4.63;;
73872;SDS011;62206;47.568;9.364;2023-12-22T06:02:00;9.38;;;4.78;;
73872;SDS011;62206;47.568;9.364;2023-12-22T06:04:28;7.40;;;4.47;;
73872;SDS011;62206;47.568;9.364;2023-12-22T06:06:56;10.98;;;4.38;;
73872;SDS011;62206;47.568;9.364;2023-12-22T06:09:24;9.88;;;4.38;;
73872;SDS011;62206;47.568;9.364;2023-12-22T06:11:50;10.48;;;4.95;;
73872;SDS011;62206;47.568;9.364;2023-12-22T06:14:17;7.97;;;4.25;;
73872;SDS011;62206;47.568;9.364;2023-12-22T06:16:45;10.45;;;4.68;;
73872;SDS011;62206;47.568;9.364;2023-12-22T06:19:12;8.80;;;4.55;;
73872;SDS011;62206;47.568;9.364;2023-12-22T06:21:39;8.10;;;4.38;;
73872;SDS011;62206;47.568;9.364;2023-12-22T06:24:08;11.35;;;5.13;;
73872;SDS011;62206;47.568;9.364;2023-12-22T06:26:35;11.82;;;5.70;;
73872;SDS011;62206;47.568;9.364;2023-12-22T06:29:02;9.20;;;4.40;;
73872;SDS011;62206;47.568;9.364;2023-12-22T06:31:30;7.85;;;4.78;;
73872;SDS011;62206;47.568;9.364;2023-12-22T06:33:57;6.93;;;4.82;;
73872;SDS011;62206;47.568;9.364;2023-12-22T06:36:27;9.55;;;4.65;;
73872;SDS011;62206;47.568;9.364;2023-12-22T06:38:55;8.60;;;4.60;;
73872;SDS011;62206;47.568;9.364;2023-12-22T06:41:25;10.70;;;5.15;;
73872;SDS011;62206;47.568;9.364;2023-12-22T06:43:52;9.70;;;5.20;;
73872;SDS011;62206;47.568;9.364;2023-12-22T06:46:20;6.28;;;4.13;;
73872;SDS011;62206;47.568;9.364;2023-12-22T06:48:48;8.95;;;5.30;;
73872;SDS011;62206;47.568;9.364;2023-12-22T06:51:18;7.72;;;5.13;;
73872;SDS011;62206;47.568;9.364;2023-12-22T06:53:46;8.77;;;4.85;;
73872;SDS011;62206;47.568;9.364;2023-12-22T06:56:17;8.90;;;5.05;;
73872;SDS011;62206;47.568;9.364;2023-12-22T06:58:45;9.32;;;4.22;;
73872;SDS011;62206;47.568;9.364;2023-12-22T07:01:17;8.73;;;4.32;;
73872;SDS011;62206;47.568;9.364;2023-12-22T07:03:46;12.88;;;4.20;;
73872;SDS011;62206;47.568;9.364;2023-12-22T07:06:14;9.15;;;4.50;;
73872;SDS011;62206;47.568;9.364;2023-12-22T07:08:41;11.63;;;5.22;;
73872;SDS011;62206;47.568;9.364;2023-12-22T07:11:09;8.68;;;4.25;;
73872;SDS011;62206;47.568;9.364;2023-12-22T07:13:37;8.90;;;3.83;;
73872;SDS011;62206;47.568;9.364;2023-12-22T07:16:06;11.13;;;4.55;;
73872;SDS011;62206;47.568;9.364;2023-12-22T07:18:33;9.52;;;4.15;;
73872;SDS011;62206;47.568;9.364;2023-12-22T07:21:00;8.15;;;3.92;;
73872;SDS011;62206;47.568;9.364;2023-12-22T07:23:27;7.80;;;4.22;;
73872;SDS011;62206;47.568;9.364;2023-12-22T07:25:54;9.82;;;4.28;;
73872;SDS011;62206;47.568;9.364;2023-12-22T07:28:21;8.75;;;4.90;;
73872;SDS011;62206;47.568;9.364;2023-12-22T07:30:48;7.90;;;4.35;;
73872;SDS011;62206;47.568;9.364;2023-12-22T07:33:16;10.13;;;5.38;;
73872;SDS011;62206;47.568;9.364;2023-12-22T07:35:44;8.07;;;4.68;;
73872;SDS011;62206;47.568;9.364;2023-12-22T07:38:11;8.48;;;4.70;;
73872;SDS011;62206;47.568;9.364;2023-12-22T07:40:37;11.18;;;5.78;;
73872;SDS011;62206;47.568;9.364;2023-12-22T07:43:05;8.30;;;5.18;;
73872;SDS011;62206;47.568;9.364;2023-12-22T07:45:33;10.23;;;5.05;;
73872;SDS011;62206;47.568;9.364;2023-12-22T07:48:00;7.60;;;4.93;;
73872;SDS011;62206;47.568;9.364;2023-12-22T07:50:29;12.45;;;4.70;;
73872;SDS011;62206;47.568;9.364;2023-12-22T07:52:56;9.13;;;4.85;;
73872;SDS011;62206;47.568;9.364;2023-12-22T07:55:23;10.55;;;5.18;;
73872;SDS011;62206;47.568;9.364;2023-12-22T07:57:51;10.43;;;5.32;;
73872;SDS011;62206;47.568;9.364;2023-12-22T08:00:18;10.73;;;4.72;;
73872;SDS011;62206;47.568;9.364;2023-12-22T08:02:45;8.02;;;4.75;;
73872;SDS011;62206;47.568;9.364;2023-12-22T08:05:13;8.95;;;4.68;;
73872;SDS011;62206;47.568;9.364;2023-12-22T08:07:42;11.10;;;4.60;;
73872;SDS011;62206;47.568;9.364;2023-12-22T08:10:09;10.10;;;4.80;;
73872;SDS011;62206;47.568;9.364;2023-12-22T08:12:36;9.98;;;4.40;;
73872;SDS011;62206;47.568;9.364;2023-12-22T08:15:04;9.40;;;4.15;;
73872;SDS011;62206;47.568;9.364;2023-12-22T08:17:31;10.95;;;4.75;;
73872;SDS011;62206;47.568;9.364;2023-12-22T08:19:59;9.65;;;5.00;;
73872;SDS011;62206;47.568;9.364;2023-12-22T08:22:26;9.63;;;5.10;;
73872;SDS011;62206;47.568;9.364;2023-12-22T08:24:54;8.55;;;4.53;;
73872;SDS011;62206;47.568;9.364;2023-12-22T08:27:21;12.55;;;5.00;;
73872;SDS011;62206;47.568;9.364;2023-12-22T08:29:49;10.48;;;5.22;;
73872;SDS011;62206;47.568;9.364;2023-12-22T08:32:19;11.45;;;4.97;;
73872;SDS011;62206;47.568;9.364;2023-12-22T08:34:46;9.10;;;5.07;;
73872;SDS011;62206;47.568;9.364;2023-12-22T08:37:13;10.40;;;5.15;;
73872;SDS011;62206;47.568;9.364;2023-12-22T08:39:40;10.63;;;4.95;;
73872;SDS011;62206;47.568;9.364;2023-12-22T08:42:09;8.48;;;3.88;;
73872;SDS011;62206;47.568;9.364;2023-12-22T08:44:37;10.40;;;5.10;;
73872;SDS011;62206;47.568;9.364;2023-12-22T08:47:04;9.73;;;4.22;;
73872;SDS011;62206;47.568;9.364;2023-12-22T08:49:31;11.35;;;4.43;;
73872;SDS011;62206;47.568;9.364;2023-12-22T08:51:58;8.88;;;5.55;;
73872;SDS011;62206;47.568;9.364;2023-12-22T08:54:25;8.95;;;4.72;;
73872;SDS011;62206;47.568;9.364;2023-12-22T08:56:53;12.48;;;4.78;;
73872;SDS011;62206;47.568;9.364;2023-12-22T08:59:21;10.65;;;4.13;;
73872;SDS011;62206;47.568;9.364;2023-12-22T09:01:48;7.65;;;4.18;;
73872;SDS011;62206;47.568;9.364;2023-12-22T09:04:15;11.02;;;4.43;;
73872;SDS011;62206;47.568;9.364;2023-12-22T09:06:43;7.97;;;4.72;;
73872;SDS011;62206;47.568;9.364;2023-12-22T09:09:10;8.20;;;4.45;;
73872;SDS011;62206;47.568;9.364;2023-12-22T09:11:37;6.05;;;4.32;;
73872;SDS011;62206;47.568;9.364;2023-12-22T09:14:04;8.70;;;4.50;;
73872;SDS011;62206;47.568;9.364;2023-12-22T09:16:36;8.00;;;4.45;;
73872;SDS011;62206;47.568;9.364;2023-12-22T09:19:03;7.90;;;4.22;;
73872;SDS011;62206;47.568;9.364;2023-12-22T09:21:30;8.15;;;4.05;;
73872;SDS011;62206;47.568;9.364;2023-12-22T09:23:57;7.35;;;4.60;;
73872;SDS011;62206;47.568;9.364;2023-12-22T09:26:25;8.30;;;4.20;;
73872;SDS011;62206;47.568;9.364;2023-12-22T09:28:53;8.57;;;4.05;;
73872;SDS011;62206;47.568;9.364;2023-12-22T09:31:21;8.50;;;4.50;;
73872;SDS011;62206;47.568;9.364;2023-12-22T09:33:50;9.35;;;5.13;;
73872;SDS011;62206;47.568;9.364;2023-12-22T09:36:17;9.70;;;5.07;;
73872;SDS011;62206;47.568;9.364;2023-12-22T09:38:44;10.23;;;5.25;;
73872;SDS011;62206;47.568;9.364;2023-12-22T09:41:11;9.57;;;4.45;;
73872;SDS011;62206;47.568;9.364;2023-12-22T09:43:38;9.07;;;4.30;;
73872;SDS011;62206;47.568;9.364;2023-12-22T09:46:05;11.18;;;4.72;;
73872;SDS011;62206;47.568;9.364;2023-12-22T09:48:33;9.68;;;4.72;;
73872;SDS011;62206;47.568;9.364;2023-12-22T09:51:02;9.00;;;4.50;;
73872;SDS011;62206;47.568;9.364;2023-12-22T09:53:29;12.52;;;4.70;;
73872;SDS011;62206;47.568;9.364;2023-12-22T09:55:58;12.20;;;4.43;;
73872;SDS011;62206;47.568;9.364;2023-12-22T09:58:25;8.80;;;5.05;;
73872;SDS011;62206;47.568;9.364;2023-12-22T10:00:52;10.73;;;4.57;;
73872;SDS011;62206;47.568;9.364;2023-12-22T10:03:20;6.97;;;4.05;;
73872;SDS011;62206;47.568;9.364;2023-12-22T10:05:49;8.77;;;4.53;;
73872;SDS011;62206;47.568;9.364;2023-12-22T10:08:18;9.65;;;4.90;;
73872;SDS011;62206;47.568;9.364;2023-12-22T10:10:45;9.63;;;5.47;;
73872;SDS011;62206;47.568;9.364;2023-12-22T10:13:13;8.55;;;5.30;;
73872;SDS011;62206;47.568;9.364;2023-12-22T10:15:41;8.90;;;4.53;;
73872;SDS011;62206;47.568;9.364;2023-12-22T10:18:10;9.77;;;5.00;;
73872;SDS011;62206;47.568;9.364;2023-12-22T10:20:38;9.27;;;4.80;;
73872;SDS011;62206;47.568;9.364;2023-12-22T10:23:05;8.27;;;4.78;;
73872;SDS011;62206;47.568;9.364;2023-12-22T10:25:33;10.07;;;4.50;;
73872;SDS011;62206;47.568;9.364;2023-12-22T10:28:00;9.20;;;5.38;;
73872;SDS011;62206;47.568;9.364;2023-12-22T10:30:28;8.60;;;4.30;;
73872;SDS011;62206;47.568;9.364;2023-12-22T10:32:55;10.30;;;5.25;;
73872;SDS011;62206;47.568;9.364;2023-12-22T10:35:22;7.68;;;5.00;;
73872;SDS011;62206;47.568;9.364;2023-12-22T10:37:49;9.38;;;4.53;;
73872;SDS011;62206;47.568;9.364;2023-12-22T10:40:19;10.82;;;5.35;;
73872;SDS011;62206;47.568;9.364;2023-12-22T10:42:47;9.10;;;4.35;;
73872;SDS011;62206;47.568;9.364;2023-12-22T10:45:15;8.07;;;4.55;;
73872;SDS011;62206;47.568;9.364;2023-12-22T10:47:43;10.57;;;4.45;;
73872;SDS011;62206;47.568;9.364;2023-12-22T10:50:11;9.65;;;5.32;;
73872;SDS011;62206;47.568;9.364;2023-12-22T10:52:38;11.35;;;5.60;;
73872;SDS011;62206;47.568;9.364;2023-12-22T10:55:06;10.27;;;4.70;;
73872;SDS011;62206;47.568;9.364;2023-12-22T10:57:33;8.70;;;5.10;;
73872;SDS011;62206;47.568;9.364;2023-12-22T11:00:08;11.27;;;5.53;;
73872;SDS011;62206;47.568;9.364;2023-12-22T11:02:38;12.45;;;4.70;;
73872;SDS011;62206;47.568;9.364;2023-12-22T11:05:09;9.48;;;4.85;;
73872;SDS011;62206;47.568;9.364;2023-12-22T11:07:38;7.40;;;4.22;;
73872;SDS011;62206;47.568;9.364;2023-12-22T11:10:07;8.05;;;5.18;;
73872;SDS011;62206;47.568;9.364;2023-12-22T11:12:34;7.68;;;4.57;;
73872;SDS011;62206;47.568;9.364;2023-12-22T11:15:02;7.47;;;4.25;;
73872;SDS011;62206;47.568;9.364;2023-12-22T11:17:32;8.23;;;4.90;;
73872;SDS011;62206;47.568;9.364;2023-12-22T11:19:59;11.55;;;5.10;;
73872;SDS011;62206;47.568;9.364;2023-12-22T11:22:26;7.00;;;4.15;;
73872;SDS011;62206;47.568;9.364;2023-12-22T11:24:55;7.30;;;3.97;;
73872;SDS011;62206;47.568;9.364;2023-12-22T11:27:22;6.50;;;3.47;;
73872;SDS011;62206;47.568;9.364;2023-12-22T11:29:50;7.03;;;4.32;;
73872;SDS011;62206;47.568;9.364;2023-12-22T11:32:19;6.78;;;4.32;;
73872;SDS011;62206;47.568;9.364;2023-12-22T11:34:47;6.93;;;4.05;;
73872;SDS011;62206;47.568;9.364;2023-12-22T11:37:15;6.63;;;4.80;;
73872;SDS011;62206;47.568;9.364;2023-12-22T11:39:42;8.25;;;4.80;;
73872;SDS011;62206;47.568;9.364;2023-12-22T11:42:11;7.80;;;3.63;;
73872;SDS011;62206;47.568;9.364;2023-12-22T11:44:42;6.40;;;4.05;;
73872;SDS011;62206;47.568;9.364;2023-12-22T11:47:09;7.03;;;3.78;;
73872;SDS011;62206;47.568;9.364;2023-12-22T11:49:39;6.97;;;3.80;;
73872;SDS011;62206;47.568;9.364;2023-12-22T11:52:11;8.68;;;3.75;;
73872;SDS011;62206;47.568;9.364;2023-12-22T11:54:45;8.75;;;3.55;;
73872;SDS011;62206;47.568;9.364;2023-12-22T11:59:59;6.72;;;4.18;;
73872;SDS011;62206;47.568;9.364;2023-12-22T12:02:29;5.72;;;4.10;;
73872;SDS011;62206;47.568;9.364;2023-12-22T12:04:58;6.22;;;4.20;;
73872;SDS011;62206;47.568;9.364;2023-12-22T12:07:38;4.97;;;3.60;;
73872;SDS011;62206;47.568;9.364;2023-12-22T12:10:07;6.32;;;4.15;;
73872;SDS011;62206;47.568;9.364;2023-12-22T12:12:34;5.60;;;3.92;;
73872;SDS011;62206;47.568;9.364;2023-12-22T12:15:06;9.18;;;4.30;;
73872;SDS011;62206;47.568;9.364;2023-12-22T12:17:37;4.60;;;4.00;;
73872;SDS011;62206;47.568;9.364;2023-12-22T12:20:07;5.18;;;3.70;;
73872;SDS011;62206;47.568;9.364;2023-12-22T12:22:36;5.00;;;3.55;;
73872;SDS011;62206;47.568;9.364;2023-12-22T12:25:07;5.32;;;4.55;;
73872;SDS011;62206;47.568;9.364;2023-12-22T12:27:36;5.93;;;3.95;;
73872;SDS011;62206;47.568;9.364;2023-12-22T12:30:10;5.07;;;3.88;;
73872;SDS011;62206;47.568;9.364;2023-12-22T12:32:40;5.05;;;3.97;;
73872;SDS011;62206;47.568;9.364;2023-12-22T12:35:10;5.03;;;4.03;;
73872;SDS011;62206;47.568;9.364;2023-12-22T12:37:38;5.47;;;4.20;;
73872;SDS011;62206;47.568;9.364;2023-12-22T12:40:07;4.50;;;4.03;;
73872;SDS011;62206;47.568;9.364;2023-12-22T12:42:35;4.45;;;3.85;;
73872;SDS011;62206;47.568;9.364;2023-12-22T12:45:03;5.25;;;4.40;;
73872;SDS011;62206;47.568;9.364;2023-12-22T12:47:31;4.93;;;4.00;;
73872;SDS011;62206;47.568;9.364;2023-12-22T12:49:58;5.28;;;4.25;;
73872;SDS011;62206;47.568;9.364;2023-12-22T12:52:26;3.90;;;3.50;;
73872;SDS011;62206;47.568;9.364;2023-12-22T12:54:54;4.78;;;4.38;;
73872;SDS011;62206;47.568;9.364;2023-12-22T12:57:23;4.97;;;3.72;;
73872;SDS011;62206;47.568;9.364;2023-12-22T12:59:50;5.93;;;4.15;;
73872;SDS011;62206;47.568;9.364;2023-12-22T13:02:18;3.85;;;3.42;;
73872;SDS011;62206;47.568;9.364;2023-12-22T13:04:46;4.22;;;3.83;;
73872;SDS011;62206;47.568;9.364;2023-12-22T13:07:13;4.00;;;3.55;;
73872;SDS011;62206;47.568;9.364;2023-12-22T13:09:42;4.28;;;3.88;;
73872;SDS011;62206;47.568;9.364;2023-12-22T13:12:09;4.38;;;3.92;;
73872;SDS011;62206;47.568;9.364;2023-12-22T13:14:36;4.22;;;3.72;;
73872;SDS011;62206;47.568;9.364;2023-12-22T13:17:05;4.47;;;3.78;;
73872;SDS011;62206;47.568;9.364;2023-12-22T13:19:32;4.82;;;3.35;;
73872;SDS011;62206;47.568;9.364;2023-12-22T13:21:59;4.38;;;3.97;;
73872;SDS011;62206;47.568;9.364;2023-12-22T13:24:27;4.60;;;4.18;;
73872;SDS011;62206;47.568;9.364;2023-12-22T13:27:01;4.07;;;3.67;;
73872;SDS011;62206;47.568;9.364;2023-12-22T13:29:41;4.50;;;4.10;;
73872;SDS011;62206;47.568;9.364;2023-12-22T13:32:08;4.25;;;3.85;;
73872;SDS011;62206;47.568;9.364;2023-12-22T13:34:45;3.75;;;3.20;;
73872;SDS011;62206;47.568;9.364;2023-12-22T13:37:13;4.40;;;4.00;;
73872;SDS011;62206;47.568;9.364;2023-12-22T13:39:41;4.18;;;3.58;;
73872;SDS011;62206;47.568;9.364;2023-12-22T13:42:14;4.20;;;3.38;;
73872;SDS011;62206;47.568;9.364;2023-12-22T13:44:43;3.72;;;3.28;;
73872;SDS011;62206;47.568;9.364;2023-12-22T13:47:12;3.70;;;3.30;;
73872;SDS011;62206;47.568;9.364;2023-12-22T13:49:40;3.75;;;3.03;;
73872;SDS011;62206;47.568;9.364;2023-12-22T13:52:08;3.40;;;3.05;;
73872;SDS011;62206;47.568;9.364;2023-12-22T13:54:34;4.20;;;3.80;;
73872;SDS011;62206;47.568;9.364;2023-12-22T13:57:01;4.60;;;4.20;;
73872;SDS011;62206;47.568;9.364;2023-12-22T13:59:34;4.30;;;3.90;;
73872;SDS011;62206;47.568;9.364;2023-12-22T14:02:00;3.58;;;3.25;;
73872;SDS011;62206;47.568;9.364;2023-12-22T14:04:27;3.97;;;3.60;;
73872;SDS011;62206;47.568;9.364;2023-12-22T14:06:55;3.92;;;3.42;;
73872;SDS011;62206;47.568;9.364;2023-12-22T14:09:21;5.70;;;4.75;;
73872;SDS011;62206;47.568;9.364;2023-12-22T14:11:49;4.72;;;4.03;;
73872;SDS011;62206;47.568;9.364;2023-12-22T14:14:17;4.10;;;3.70;;
73872;SDS011;62206;47.568;9.364;2023-12-22T14:16:46;4.03;;;3.63;;
73872;SDS011;62206;47.568;9.364;2023-12-22T14:19:13;3.97;;;3.58;;
73872;SDS011;62206;47.568;9.364;2023-12-22T14:21:40;3.80;;;3.40;;
73872;SDS011;62206;47.568;9.364;2023-12-22T14:24:07;4.20;;;3.80;;
73872;SDS011;62206;47.568;9.364;2023-12-22T14:29:19;4.25;;;3.85;;
73872;SDS011;62206;47.568;9.364;2023-12-22T14:31:51;4.18;;;3.78;;
73872;SDS011;62206;47.568;9.364;2023-12-22T14:34:18;3.95;;;3.58;;
73872;SDS011;62206;47.568;9.364;2023-12-22T14:36:45;4.18;;;3.58;;
73872;SDS011;62206;47.568;9.364;2023-12-22T14:39:12;4.55;;;4.15;;
73872;SDS011;62206;47.568;9.364;2023-12-22T14:41:39;6.03;;;5.45;;
73872;SDS011;62206;47.568;9.364;2023-12-22T14:44:07;5.75;;;3.55;;
73872;SDS011;62206;47.568;9.364;2023-12-22T14:46:37;4.57;;;4.15;;
73872;SDS011;62206;47.568;9.364;2023-12-22T14:49:07;3.67;;;3.22;;
73872;SDS011;62206;47.568;9.364;2023-12-22T14:51:34;5.03;;;4.53;;
73872;SDS011;62206;47.568;9.364;2023-12-22T14:54:02;4.40;;;4.00;;